Time;durP1;ratioP1;P1;durP2;ratioP2;P2;SDS_P1;SDS_P2;PMS_P1;PMS_P2;Temp;Humidity;BMP_temperature;BMP_pressure;BME280_temperature;BME280_humidity;BME280_pressure;Samples;Min_cycle;Max_cycle;Signal;HPM_P1;HPM_P2
2022/09/10 00:00:15;;;;;;;3.45;1.20;;;;;;;20.67;55.32;100814.97;5030694;28;96763;-68
2022/09/10 00:02:43;;;;;;;3.33;1.13;;;;;;;20.66;55.36;100812.41;5034677;27;96794;-68
2022/09/10 00:05:13;;;;;;;3.92;1.67;;;;;;;20.51;55.81;100810.88;5033483;28;98867;-68
2022/09/10 00:07:39;;;;;;;3.30;1.42;;;;;;;20.60;55.98;100802.13;5033596;27;98877;-67
2022/09/10 00:10:08;;;;;;;4.90;1.23;;;;;;;20.36;56.87;100801.28;5033745;27;96732;-67
2022/09/10 00:12:35;;;;;;;7.68;1.20;;;;;;;20.37;56.64;100805.69;5033697;27;98170;-68
2022/09/10 00:15:02;;;;;;;2.22;1.20;;;;;;;20.33;56.68;100814.97;5032744;28;98894;-68
2022/09/10 00:17:30;;;;;;;1.95;1.38;;;;;;;20.40;57.05;100818.91;5033767;27;101238;-67
2022/09/10 00:19:58;;;;;;;3.15;1.52;;;;;;;20.33;57.05;100812.28;5033437;28;96794;-67
2022/09/10 00:22:24;;;;;;;3.00;1.10;;;;;;;20.33;56.91;100806.91;5032260;27;98243;-67
2022/09/10 00:24:54;;;;;;;1.80;1.30;;;;;;;19.95;58.29;100810.59;5028936;28;98871;-67
2022/09/10 00:27:26;;;;;;;3.00;1.33;;;;;;;20.12;57.76;100810.19;5033456;28;99009;-67
2022/09/10 00:29:53;;;;;;;3.92;1.20;;;;;;;19.91;58.57;100811.75;5033303;27;96674;-67
2022/09/10 00:32:20;;;;;;;3.72;1.50;;;;;;;20.21;57.46;100806.81;5029289;27;96769;-68
2022/09/10 00:34:48;;;;;;;3.10;1.60;;;;;;;20.24;57.13;100797.66;5033249;28;99898;-67
2022/09/10 00:37:17;;;;;;;6.15;1.70;;;;;;;20.01;58.06;100807.44;5029361;27;99014;-67
2022/09/10 00:39:43;;;;;;;4.45;1.52;;;;;;;20.45;56.82;100801.47;5028497;28;97812;-67
2022/09/10 00:42:10;;;;;;;3.75;1.42;;;;;;;20.54;56.45;100797.25;5033698;28;96923;-68
2022/09/10 00:45:01;;;;;;;2.20;1.35;;;;;;;20.12;57.37;100796.78;5026119;27;99511;-68
2022/09/10 00:47:33;;;;;;;4.07;1.50;;;;;;;20.19;57.33;100798.03;5029622;28;99349;-68
2022/09/10 00:50:05;;;;;;;4.03;1.20;;;;;;;20.36;56.97;100795.91;5025762;28;96936;-67
2022/09/10 00:52:32;;;;;;;2.95;1.58;;;;;;;20.56;56.20;100797.94;5032111;28;96883;-69
2022/09/10 00:54:59;;;;;;;4.53;1.50;;;;;;;20.38;56.80;100796.66;5031808;28;99624;-67
2022/09/10 00:57:29;;;;;;;2.58;1.48;;;;;;;20.25;57.05;100797.56;5032949;27;99298;-68
2022/09/10 01:00:02;;;;;;;2.85;1.30;;;;;;;20.20;57.36;100794.38;5032641;28;97176;-68
2022/09/10 01:02:28;;;;;;;4.63;1.30;;;;;;;20.21;57.20;100787.19;5033104;27;96811;-67
2022/09/10 01:04:58;;;;;;;6.03;1.50;;;;;;;20.11;57.75;100800.41;5031063;28;98219;-67
2022/09/10 01:07:27;;;;;;;5.78;1.80;;;;;;;20.17;57.37;100796.41;5032185;27;101762;-67
2022/09/10 01:09:55;;;;;;;4.63;1.35;;;;;;;20.09;57.88;100805.03;5032568;27;96777;-67
2022/09/10 01:12:41;;;;;;;4.25;1.45;;;;;;;20.01;57.99;100809.25;5030387;28;96790;-67
2022/09/10 01:15:20;;;;;;;2.95;1.30;;;;;;;20.20;57.71;100804.25;5031507;28;99407;-67
2022/09/10 01:18:02;;;;;;;2.65;1.38;;;;;;;20.48;56.65;100798.53;5029117;28;98533;-67
2022/09/10 01:20:43;;;;;;;7.40;1.60;;;;;;;20.26;56.94;100801.09;5029756;28;98329;-67
2022/09/10 01:23:38;;;;;;;2.15;1.50;;;;;;;20.21;57.55;100795.25;5033137;27;97033;-67
2022/09/10 01:26:19;;;;;;;6.00;1.70;;;;;;;20.33;56.87;100798.84;5031559;28;99266;-66
2022/09/10 01:28:55;;;;;;;6.25;1.35;;;;;;;20.16;57.45;100806.28;5031820;27;98829;-67
2022/09/10 01:31:26;;;;;;;3.72;1.92;;;;;;;20.28;57.02;100809.91;5032254;27;96860;-68
2022/09/10 01:34:01;;;;;;;6.63;1.85;;;;;;;20.38;56.69;100804.72;5031533;28;96899;-68
2022/09/10 01:36:32;;;;;;;3.70;1.58;;;;;;;20.18;56.91;100808.88;5032059;27;98992;-68
2022/09/10 01:39:02;;;;;;;2.45;1.45;;;;;;;20.03;57.69;100813.53;5026921;28;98759;-69
2022/09/10 01:41:28;;;;;;;4.03;1.75;;;;;;;20.03;57.43;100805.47;5029884;28;96956;-68
2022/09/10 01:43:56;;;;;;;5.40;1.75;;;;;;;19.94;57.72;100816.91;5026562;28;97312;-68
2022/09/10 01:46:35;;;;;;;5.43;1.42;;;;;;;19.68;58.83;100802.72;5030896;27;99587;-68
2022/09/10 01:49:17;;;;;;;9.85;2.08;;;;;;;19.82;58.31;100804.41;5029906;28;98242;-68
2022/09/10 01:52:00;;;;;;;4.78;1.30;;;;;;;19.67;58.47;100814.41;5033142;28;97208;-68
2022/09/10 01:54:40;;;;;;;3.80;1.90;;;;;;;19.63;58.99;100809.34;5031797;28;97025;-68
2022/09/10 01:57:17;;;;;;;4.35;1.55;;;;;;;19.86;58.33;100813.91;5032128;27;99158;-67
2022/09/10 01:59:53;;;;;;;6.40;1.65;;;;;;;19.77;58.65;100802.03;5028069;28;99037;-67
2022/09/10 02:02:24;;;;;;;4.57;1.87;;;;;;;19.66;58.93;100807.31;5028325;28;97038;-67
2022/09/10 02:04:54;;;;;;;4.53;1.65;;;;;;;19.90;57.62;100810.03;5026149;27;97113;-68
2022/09/10 02:07:25;;;;;;;3.30;1.58;;;;;;;19.61;58.98;100809.50;5031102;27;98215;-67
2022/09/10 02:09:53;;;;;;;3.83;1.52;;;;;;;19.82;58.45;100807.09;5032621;27;98911;-68
2022/09/10 02:12:22;;;;;;;4.00;1.48;;;;;;;19.99;57.75;100812.06;5031330;28;96910;-68
2022/09/10 02:14:57;;;;;;;6.90;1.45;;;;;;;19.94;58.15;100806.19;5032029;27;97300;-68
2022/09/10 02:17:29;;;;;;;4.07;1.60;;;;;;;19.83;58.02;100808.75;5030539;27;99768;-68
2022/09/10 02:19:58;;;;;;;2.08;1.25;;;;;;;19.68;58.54;100804.53;5030630;28;98859;-68
2022/09/10 02:22:24;;;;;;;2.92;1.25;;;;;;;19.72;58.20;100803.34;5027915;28;96771;-68
2022/09/10 02:24:52;;;;;;;6.25;1.63;;;;;;;20.04;57.47;100801.84;5030580;27;97011;-67
2022/09/10 02:27:22;;;;;;;8.43;1.52;;;;;;;19.93;57.39;100811.66;5031801;27;98876;-68
2022/09/10 02:29:50;;;;;;;3.30;1.70;;;;;;;19.95;57.23;100813.25;5031443;27;99606;-68
2022/09/10 02:32:18;;;;;;;2.67;1.30;;;;;;;19.94;57.22;100811.53;5032277;28;96848;-68
2022/09/10 02:34:44;;;;;;;5.20;1.73;;;;;;;19.94;57.22;100827.63;5028921;28;99168;-68
2022/09/10 02:37:15;;;;;;;5.40;1.30;;;;;;;19.79;57.53;100818.88;5032156;27;98914;-67
2022/09/10 02:39:42;;;;;;;6.30;1.40;;;;;;;19.92;57.21;100816.16;5032718;28;97692;-68
2022/09/10 02:42:09;;;;;;;3.00;1.52;;;;;;;19.77;57.90;100820.81;5031760;28;96868;-69
2022/09/10 02:44:35;;;;;;;2.92;1.60;;;;;;;19.67;58.63;100817.09;5031717;27;97218;-68
2022/09/10 02:47:06;;;;;;;3.83;1.52;;;;;;;19.61;58.34;100824.72;5031875;28;99421;-67
2022/09/10 02:49:33;;;;;;;5.32;1.50;;;;;;;19.80;57.88;100825.97;5031451;28;99510;-68
2022/09/10 02:52:01;;;;;;;4.50;1.58;;;;;;;19.48;58.82;100825.59;5025386;27;96871;-68
2022/09/10 02:54:29;;;;;;;6.30;2.03;;;;;;;19.60;58.58;100823.84;5031721;27;96862;-68
2022/09/10 02:56:56;;;;;;;3.80;1.63;;;;;;;19.55;58.61;100830.50;5031303;28;99363;-67
2022/09/10 02:59:22;;;;;;;3.75;1.63;;;;;;;19.54;58.90;100834.16;5031368;27;99132;-68
2022/09/10 03:01:53;;;;;;;4.40;1.33;;;;;;;19.81;57.64;100827.69;5030936;27;96832;-68
2022/09/10 03:04:26;;;;;;;6.38;1.48;;;;;;;19.45;58.65;100825.75;5031432;27;96870;-68
2022/09/10 03:06:53;;;;;;;8.63;2.20;;;;;;;19.54;58.69;100820.75;5031932;27;97756;-68
2022/09/10 03:09:27;;;;;;;4.20;1.40;;;;;;;19.47;59.09;100823.88;5036398;27;97118;-68
2022/09/10 03:11:54;;;;;;;5.13;1.35;;;;;;;19.48;58.86;100808.66;5034613;27;96855;-68
2022/09/10 03:14:22;;;;;;;9.27;1.60;;;;;;;19.60;58.61;100823.84;5035037;28;96800;-67
2022/09/10 03:16:54;;;;;;;4.00;1.58;;;;;;;19.45;59.10;100815.03;5034362;27;98016;-68
2022/09/10 03:19:23;;;;;;;4.18;1.45;;;;;;;19.45;58.91;100819.53;5033271;27;101342;-68
2022/09/10 03:21:50;;;;;;;7.45;2.20;;;;;;;19.34;59.31;100817.63;5034999;27;96795;-68
2022/09/10 03:24:17;;;;;;;4.80;1.40;;;;;;;19.30;59.37;100828.66;5034238;28;97056;-68
2022/09/10 03:26:45;;;;;;;5.70;1.67;;;;;;;19.62;58.34;100821.06;5034257;27;98895;-67
2022/09/10 03:29:12;;;;;;;4.20;1.70;;;;;;;19.32;59.27;100819.56;5033581;27;99169;-67
2022/09/10 03:31:38;;;;;;;5.75;1.92;;;;;;;19.06;59.74;100817.84;5034645;27;97162;-68
2022/09/10 03:34:05;;;;;;;7.80;1.60;;;;;;;19.22;59.44;100823.00;5034299;27;97199;-66
2022/09/10 03:36:32;;;;;;;4.72;1.40;;;;;;;19.35;59.09;100824.72;5029908;27;97940;-67
2022/09/10 03:38:59;;;;;;;4.45;2.22;;;;;;;19.23;59.17;100822.03;5033465;28;99220;-67
2022/09/10 03:41:27;;;;;;;7.28;1.92;;;;;;;19.28;59.42;100812.72;5034592;28;97256;-67
2022/09/10 03:43:53;;;;;;;4.78;1.30;;;;;;;19.14;59.59;100810.13;5035072;28;96878;-67
2022/09/10 03:46:22;;;;;;;3.55;1.58;;;;;;;19.24;59.43;100813.88;5033281;28;99396;-67
2022/09/10 03:48:51;;;;;;;6.90;2.03;;;;;;;19.35;59.21;100807.78;5031266;27;98176;-66
2022/09/10 03:51:17;;;;;;;7.50;1.80;;;;;;;19.15;59.48;100806.50;5029042;28;96729;-67
2022/09/10 03:53:49;;;;;;;4.05;1.70;;;;;;;19.20;59.70;100808.84;5034423;27;96872;-68
2022/09/10 03:56:24;;;;;;;2.08;1.40;;;;;;;19.03;59.71;100807.38;5033164;28;101486;-67
2022/09/10 03:58:52;;;;;;;2.33;1.20;;;;;;;19.30;59.17;100805.41;5033714;28;98691;-67
2022/09/10 04:01:19;;;;;;;2.58;1.48;;;;;;;19.12;59.55;100801.34;5034869;27;97725;-68
2022/09/10 04:03:48;;;;;;;3.90;1.48;;;;;;;19.19;59.40;100808.00;5031802;28;96913;-67
2022/09/10 04:06:16;;;;;;;2.65;1.75;;;;;;;19.24;58.71;100808.50;5030548;28;98944;-68
2022/09/10 04:08:48;;;;;;;4.72;1.58;;;;;;;19.29;59.05;100808.22;5033913;28;99042;-68
2022/09/10 04:11:15;;;;;;;5.40;1.60;;;;;;;19.13;59.10;100807.56;5029684;28;96789;-66
2022/09/10 04:13:41;;;;;;;3.03;1.40;;;;;;;19.34;58.41;100817.63;5033171;27;96887;-67
2022/09/10 04:16:08;;;;;;;6.00;1.60;;;;;;;19.23;59.14;100804.13;5029464;28;98536;-67
2022/09/10 04:18:35;;;;;;;4.03;1.55;;;;;;;19.55;58.01;100814.44;5033241;27;98904;-68
2022/09/10 04:21:01;;;;;;;3.42;1.55;;;;;;;19.66;57.40;100812.69;5034024;28;96906;-68
2022/09/10 04:23:28;;;;;;;3.33;1.73;;;;;;;19.13;59.04;100813.78;5033838;27;96881;-67
2022/09/10 04:25:56;;;;;;;3.08;1.60;;;;;;;19.06;59.18;100817.84;5031875;27;98876;-68
2022/09/10 04:28:23;;;;;;;4.05;1.73;;;;;;;19.45;58.17;100811.50;5031004;28;97779;-68
2022/09/10 04:30:50;;;;;;;4.20;1.27;;;;;;;19.34;58.54;100816.78;5028883;27;96774;-68
2022/09/10 04:33:16;;;;;;;8.98;1.77;;;;;;;18.85;59.58;100811.28;5033151;28;96950;-68
2022/09/10 04:35:45;;;;;;;3.33;1.50;;;;;;;19.33;58.46;100815.91;5027955;28;99337;-68
2022/09/10 04:38:11;;;;;;;4.05;1.65;;;;;;;19.18;58.82;100818.81;5033605;27;97543;-68
2022/09/10 04:40:38;;;;;;;3.60;1.75;;;;;;;19.17;59.11;100825.97;5032847;27;96827;-68
2022/09/10 04:43:05;;;;;;;4.45;1.52;;;;;;;19.32;58.43;100821.38;5033572;28;96788;-68
2022/09/10 04:45:33;;;;;;;2.70;1.30;;;;;;;19.10;58.89;100816.66;5032701;27;98917;-68
2022/09/10 04:48:00;;;;;;;2.95;1.63;;;;;;;18.93;59.90;100815.16;5029321;27;98139;-68
2022/09/10 04:50:28;;;;;;;3.97;2.05;;;;;;;19.21;58.83;100813.25;5033788;27;96845;-67
2022/09/10 04:52:54;;;;;;;5.70;2.30;;;;;;;19.27;58.74;100813.66;5029767;28;96789;-70
2022/09/10 04:55:21;;;;;;;4.90;1.50;;;;;;;19.08;59.49;100815.94;5032444;27;98913;-67
2022/09/10 04:57:47;;;;;;;5.68;1.83;;;;;;;19.39;58.57;100825.34;5032927;27;102009;-67
2022/09/10 05:00:16;;;;;;;6.60;1.58;;;;;;;19.36;58.32;100815.69;5032368;27;98425;-66
2022/09/10 05:02:42;;;;;;;3.40;1.58;;;;;;;19.10;59.17;100813.97;5028944;28;96898;-66
2022/09/10 05:05:17;;;;;;;6.32;1.60;;;;;;;19.33;58.71;100826.63;5030637;27;98979;-66
2022/09/10 05:07:43;;;;;;;4.45;1.67;;;;;;;19.04;59.42;100825.97;5031650;28;99006;-66
2022/09/10 05:10:10;;;;;;;3.53;1.80;;;;;;;19.14;59.42;100831.56;5032902;27;96715;-66
2022/09/10 05:12:37;;;;;;;6.68;1.70;;;;;;;19.13;59.35;100824.50;5029480;27;96890;-66
2022/09/10 05:15:05;;;;;;;5.13;2.03;;;;;;;19.03;59.29;100826.09;5030536;28;99398;-68
2022/09/10 05:17:35;;;;;;;5.18;2.08;;;;;;;19.27;58.90;100821.72;5027119;28;98846;-67
2022/09/10 05:20:04;;;;;;;4.32;1.58;;;;;;;19.11;59.41;100821.91;5032780;27;96828;-67
2022/09/10 05:22:30;;;;;;;2.97;1.58;;;;;;;19.32;58.62;100824.91;5031513;28;96968;-66
2022/09/10 05:24:57;;;;;;;4.95;1.70;;;;;;;19.52;58.14;100825.34;5031362;28;98969;-67
2022/09/10 05:27:23;;;;;;;4.85;1.52;;;;;;;19.50;57.95;100823.63;5032610;27;98778;-66
2022/09/10 05:29:50;;;;;;;7.13;1.83;;;;;;;19.42;57.87;100826.00;5031922;27;96698;-68
2022/09/10 05:32:18;;;;;;;4.63;1.73;;;;;;;19.72;57.09;100819.44;5030270;27;96813;-66
2022/09/10 05:34:47;;;;;;;1.65;1.25;;;;;;;19.88;56.54;100818.22;5032234;28;99054;-67
2022/09/10 05:37:14;;;;;;;5.63;1.80;;;;;;;19.98;56.09;100828.25;5032119;27;98855;-67
2022/09/10 05:39:40;;;;;;;4.18;1.85;;;;;;;19.92;56.04;100826.03;5032890;28;96707;-68
2022/09/10 05:42:07;;;;;;;6.63;1.40;;;;;;;19.66;56.73;100831.44;5027057;27;96866;-68
2022/09/10 05:44:34;;;;;;;4.28;1.70;;;;;;;19.73;56.65;100821.16;5022202;28;99496;-68
2022/09/10 05:47:00;;;;;;;4.75;1.85;;;;;;;19.82;56.55;100828.53;5031583;28;98958;-68
2022/09/10 05:49:30;;;;;;;6.07;1.73;;;;;;;20.08;55.78;100827.47;5032199;27;96877;-68
2022/09/10 05:51:57;;;;;;;4.95;1.73;;;;;;;20.07;55.33;100833.81;5032263;28;96945;-68
2022/09/10 05:54:24;;;;;;;5.72;1.45;;;;;;;19.92;55.77;100832.25;5031213;27;98878;-68
2022/09/10 05:56:51;;;;;;;3.22;1.50;;;;;;;20.11;55.32;100832.59;5031784;28;98818;-68
2022/09/10 05:59:17;;;;;;;2.45;1.35;;;;;;;20.04;55.38;100836.72;5031827;27;96752;-67
2022/09/10 06:01:43;;;;;;;1.30;1.20;;;;;;;20.36;54.59;100838.84;5032374;27;96836;-66
2022/09/10 06:04:10;;;;;;;3.65;1.70;;;;;;;20.20;54.85;100836.44;5031510;27;99339;-67
2022/09/10 06:06:37;;;;;;;10.73;1.98;;;;;;;20.45;54.17;100843.56;5031740;27;99107;-67
2022/09/10 06:09:05;;;;;;;5.07;1.27;;;;;;;20.26;54.16;100847.56;5032024;27;97018;-68
2022/09/10 06:11:31;;;;;;;2.70;1.35;;;;;;;20.29;54.36;100828.56;5032326;27;98777;-68
2022/09/10 06:13:57;;;;;;;8.25;1.67;;;;;;;20.39;54.28;100828.75;5030602;28;99626;-68
2022/09/10 06:16:24;;;;;;;5.18;1.60;;;;;;;20.52;54.12;100840.28;5032080;28;98905;-68
2022/09/10 06:18:51;;;;;;;3.97;1.58;;;;;;;20.87;53.08;100842.97;5031464;28;96753;-69
2022/09/10 06:21:19;;;;;;;3.92;1.90;;;;;;;21.10;52.31;100854.63;5032707;27;96974;-68
2022/09/10 06:23:46;;;;;;;5.30;1.42;;;;;;;20.97;52.40;100860.09;5030476;27;97883;-66
2022/09/10 06:26:17;;;;;;;5.30;1.30;;;;;;;20.93;52.78;100860.47;5031554;27;101189;-68
2022/09/10 06:28:44;;;;;;;4.20;1.50;;;;;;;21.14;51.98;100863.28;5028630;27;96911;-67
2022/09/10 06:31:16;;;;;;;2.92;1.20;;;;;;;21.11;52.36;100864.41;5032076;27;96889;-67
2022/09/10 06:33:43;;;;;;;6.78;1.20;;;;;;;21.00;52.40;100865.22;5030705;27;99264;-67
2022/09/10 06:36:10;;;;;;;6.78;1.58;;;;;;;20.94;52.24;100860.31;5031892;27;98771;-66
2022/09/10 06:38:36;;;;;;;4.03;1.50;;;;;;;20.90;52.07;100871.44;5031349;27;96774;-68
2022/09/10 06:41:05;;;;;;;5.85;1.35;;;;;;;20.95;52.07;100866.56;5032301;27;96835;-67
2022/09/10 06:43:40;;;;;;;7.32;1.63;;;;;;;21.32;51.59;100867.28;5033393;27;99275;-67
2022/09/10 06:46:09;;;;;;;4.03;1.20;;;;;;;21.34;51.13;100870.69;5034250;27;99490;-68
2022/09/10 06:48:39;;;;;;;5.03;1.58;;;;;;;21.59;50.75;100873.19;5035200;27;99050;-68
2022/09/10 06:51:07;;;;;;;3.10;0.95;;;;;;;21.37;51.29;100862.41;5034592;27;96820;-68
2022/09/10 06:53:34;;;;;;;2.65;0.93;;;;;;;21.55;50.50;100863.63;5032865;28;99479;-68
2022/09/10 06:56:02;;;;;;;4.57;1.17;;;;;;;21.67;50.23;100861.78;5033608;27;98856;-68
2022/09/10 06:58:33;;;;;;;4.70;1.00;;;;;;;22.40;48.76;100861.22;5034255;28;96758;-68
2022/09/10 07:01:06;;;;;;;7.60;1.30;;;;;;;22.36;48.33;100865.16;5032120;28;96813;-68
2022/09/10 07:03:33;;;;;;;3.80;1.63;;;;;;;22.29;48.54;100863.97;5031405;28;99005;-68
2022/09/10 07:06:03;;;;;;;2.83;0.88;;;;;;;22.49;47.92;100866.72;5034211;27;99375;-68
2022/09/10 07:08:30;;;;;;;3.30;1.00;;;;;;;22.10;48.88;100865.47;5033279;27;97519;-67
2022/09/10 07:11:03;;;;;;;4.25;0.82;;;;;;;22.20;49.06;100857.50;5028967;27;97195;-70
2022/09/10 07:13:30;;;;;;;5.80;1.42;;;;;;;22.36;48.77;100865.16;5034571;27;99269;-67
2022/09/10 07:15:58;;;;;;;2.35;1.02;;;;;;;22.62;47.89;100856.63;5034866;27;99068;-67
2022/09/10 07:18:25;;;;;;;3.30;1.30;;;;;;;22.57;48.03;100850.78;5044255;27;96836;-68
2022/09/10 07:20:52;;;;;;;5.47;1.30;;;;;;;22.51;47.97;100859.34;5032741;27;97073;-68
2022/09/10 07:23:20;;;;;;;4.72;1.50;;;;;;;22.66;48.28;100849.13;5036855;27;99004;-69
2022/09/10 07:25:47;;;;;;;6.57;1.58;;;;;;;22.84;47.32;100854.84;5034709;28;97040;-69
2022/09/10 07:28:16;;;;;;;4.85;1.02;;;;;;;22.74;47.54;100862.00;5033958;27;96737;-69
2022/09/10 07:30:44;;;;;;;6.32;1.02;;;;;;;22.98;47.21;100862.59;5033691;28;97277;-69
2022/09/10 07:33:12;;;;;;;6.68;1.20;;;;;;;23.00;47.23;100855.25;5033765;28;101737;-69
2022/09/10 07:35:39;;;;;;;2.40;0.70;;;;;;;23.14;47.12;100862.16;5033289;27;98772;-69
2022/09/10 07:38:06;;;;;;;7.15;0.88;;;;;;;23.11;46.77;100857.84;5032671;27;96749;-68
2022/09/10 07:40:34;;;;;;;1.83;1.00;;;;;;;23.17;46.79;100862.72;5032819;28;96897;-68
2022/09/10 07:43:01;;;;;;;1.58;0.98;;;;;;;23.59;45.81;100860.00;5034541;27;98990;-68
2022/09/10 07:45:31;;;;;;;3.90;1.10;;;;;;;23.92;44.92;100861.56;5033871;28;99330;-69
2022/09/10 07:47:57;;;;;;;3.83;1.17;;;;;;;23.83;45.20;100857.81;5034460;28;97570;-69
2022/09/10 07:50:25;;;;;;;4.90;0.90;;;;;;;23.80;45.75;100863.50;5034188;27;96899;-69
2022/09/10 07:52:54;;;;;;;4.65;1.17;;;;;;;24.13;44.38;100863.19;5027823;27;98985;-69
2022/09/10 07:55:25;;;;;;;3.60;1.20;;;;;;;23.88;44.97;100863.69;5024758;28;98914;-69
2022/09/10 07:57:52;;;;;;;5.10;0.90;;;;;;;23.94;44.97;100863.16;5029686;27;97219;-69
2022/09/10 08:00:21;;;;;;;2.95;1.20;;;;;;;24.07;44.10;100866.44;5035000;27;97539;-67
2022/09/10 08:02:49;;;;;;;4.95;1.25;;;;;;;24.17;43.80;100869.16;5027869;28;99169;-68
2022/09/10 08:05:19;;;;;;;2.83;1.27;;;;;;;24.32;44.35;100862.41;5030538;28;98663;-68
2022/09/10 08:07:57;;;;;;;4.97;1.15;;;;;;;23.81;44.40;100863.38;5024586;27;96856;-67
2022/09/10 08:10:25;;;;;;;2.92;0.90;;;;;;;23.95;44.29;100867.56;5026379;28;97558;-67
2022/09/10 08:12:55;;;;;;;2.30;0.80;;;;;;;24.14;43.78;100869.44;5030776;28;98715;-67
2022/09/10 08:15:28;;;;;;;3.03;1.00;;;;;;;24.63;42.51;100871.25;5030790;28;98757;-68
2022/09/10 08:17:59;;;;;;;4.25;1.27;;;;;;;24.95;42.74;100877.25;5030388;28;96824;-68
2022/09/10 08:20:25;;;;;;;2.78;0.75;;;;;;;25.06;42.18;100868.16;5027141;27;96830;-67
2022/09/10 08:22:57;;;;;;;2.75;1.15;;;;;;;24.86;42.36;100878.09;5025354;28;99574;-68
2022/09/10 08:25:36;;;;;;;2.30;0.75;;;;;;;24.67;42.74;100877.22;5029380;28;97645;-69
2022/09/10 08:28:07;;;;;;;5.97;0.80;;;;;;;24.44;43.36;100869.38;5031805;28;97727;-68
2022/09/10 08:30:40;;;;;;;6.50;0.90;;;;;;;24.29;43.35;100872.63;5028808;27;97237;-69
2022/09/10 08:33:08;;;;;;;1.80;0.90;;;;;;;24.07;43.88;100874.53;5030390;28;101113;-68
2022/09/10 08:35:43;;;;;;;4.72;2.40;;;;;;;24.71;42.68;100875.94;5028904;27;97764;-68
2022/09/10 08:38:13;;;;;;;3.80;0.77;;;;;;;24.94;42.10;100877.41;5029508;27;97009;-68
2022/09/10 08:40:48;;;;;;;4.82;0.88;;;;;;;24.82;41.96;100884.75;5029567;27;97640;-67
2022/09/10 08:43:23;;;;;;;2.53;0.87;;;;;;;24.62;42.51;100881.19;5029688;28;99306;-69
2022/09/10 08:45:55;;;;;;;2.42;0.60;;;;;;;24.78;42.25;100886.03;5026666;28;98890;-67
2022/09/10 08:48:26;;;;;;;1.17;0.60;;;;;;;25.17;41.46;100880.63;5030264;28;96913;-68
2022/09/10 08:50:57;;;;;;;3.35;1.13;;;;;;;24.86;42.15;100879.94;5026232;27;99158;-69
2022/09/10 08:53:33;;;;;;;3.88;0.95;;;;;;;25.31;41.38;100878.34;5030346;27;99557;-68
2022/09/10 08:56:04;;;;;;;4.28;1.35;;;;;;;25.48;41.09;100878.56;5027513;28;102063;-68
2022/09/10 08:58:39;;;;;;;2.80;0.80;;;;;;;25.25;41.15;100870.81;5030484;28;97150;-67
2022/09/10 09:01:12;;;;;;;3.38;1.83;;;;;;;25.55;40.30;100879.69;5026511;27;96885;-68
2022/09/10 09:03:42;;;;;;;6.18;2.80;;;;;;;25.23;40.96;100888.16;5033266;27;99088;-69
2022/09/10 09:06:23;;;;;;;1.85;0.88;;;;;;;25.37;40.78;100890.41;5027405;27;98288;-68
2022/09/10 09:08:53;;;;;;;3.17;0.70;;;;;;;25.06;41.13;100891.63;5030503;28;97353;-68
2022/09/10 09:11:26;;;;;;;4.53;0.75;;;;;;;25.38;41.11;100884.00;5032798;28;96966;-68
2022/09/10 09:14:09;;;;;;;4.80;1.00;;;;;;;25.22;41.10;100883.75;5029901;28;99084;-68
2022/09/10 09:16:48;;;;;;;2.55;0.65;;;;;;;25.40;41.30;100884.72;5033379;27;98209;-67
2022/09/10 09:19:29;;;;;;;4.30;0.75;;;;;;;25.15;41.49;100885.31;5031527;28;96815;-68
2022/09/10 09:22:02;;;;;;;2.63;0.63;;;;;;;24.89;41.78;100883.22;5033672;27;96902;-68
2022/09/10 09:24:41;;;;;;;2.15;0.43;;;;;;;24.37;42.51;100878.19;5032904;27;99001;-68
2022/09/10 09:27:15;;;;;;;2.30;0.50;;;;;;;24.10;43.28;100876.09;5032016;28;98797;-68
2022/09/10 09:29:46;;;;;;;7.60;1.27;;;;;;;24.45;42.89;100879.19;5033520;27;96985;-67
2022/09/10 09:32:16;;;;;;;2.58;0.55;;;;;;;24.67;42.21;100872.69;5033109;28;96940;-67
2022/09/10 09:34:48;;;;;;;3.10;1.45;;;;;;;24.56;42.25;100870.09;5032749;27;99360;-68
2022/09/10 09:37:20;;;;;;;2.25;0.70;;;;;;;24.88;42.19;100876.06;5033633;28;99856;-68
2022/09/10 09:40:03;;;;;;;6.45;0.80;;;;;;;24.66;42.32;100870.97;5032904;27;96807;-68
2022/09/10 09:42:39;;;;;;;3.20;0.70;;;;;;;24.94;41.51;100874.72;5031636;28;96838;-68
2022/09/10 09:45:16;;;;;;;2.63;0.77;;;;;;;24.82;42.36;100875.78;5033295;27;99067;-68
2022/09/10 09:47:48;;;;;;;2.50;0.70;;;;;;;25.15;41.23;100880.78;5028028;28;99498;-68
2022/09/10 09:50:17;;;;;;;4.97;0.77;;;;;;;25.34;41.15;100871.75;5027625;28;96747;-68
2022/09/10 09:52:44;;;;;;;2.13;0.80;;;;;;;25.55;40.40;100867.00;5033189;27;96958;-68
2022/09/10 09:55:23;;;;;;;3.55;0.70;;;;;;;25.81;40.17;100867.22;5031862;28;98578;-67
2022/09/10 09:58:12;;;;;;;1.95;0.63;;;;;;;25.81;39.87;100867.22;5032885;27;98194;-68
2022/09/10 10:00:39;;;;;;;2.38;0.70;;;;;;;26.09;39.76;100871.63;5032425;28;96723;-68
2022/09/10 10:03:13;;;;;;;2.15;0.80;;;;;;;25.70;39.89;100857.44;5029570;27;98192;-69
2022/09/10 10:05:39;;;;;;;1.55;0.40;;;;;;;25.71;39.73;100861.88;5031662;28;99212;-68
2022/09/10 10:08:06;;;;;;;1.58;0.60;;;;;;;25.76;39.81;100861.41;5032047;27;97618;-68
2022/09/10 10:10:34;;;;;;;3.22;2.38;;;;;;;25.99;39.27;100867.28;5030645;28;97858;-69
2022/09/10 10:13:00;;;;;;;2.17;1.23;;;;;;;25.70;39.84;100853.88;5032643;27;96792;-68
2022/09/10 10:15:36;;;;;;;4.03;0.82;;;;;;;25.58;39.83;100858.66;5031992;27;99782;-68
2022/09/10 10:18:26;;;;;;;3.13;0.90;;;;;;;25.64;40.55;100863.47;5031925;28;98901;-68
2022/09/10 10:21:14;;;;;;;2.47;0.70;;;;;;;26.39;38.79;100856.06;5029102;28;96788;-67
2022/09/10 10:23:40;;;;;;;2.25;0.60;;;;;;;26.15;38.96;100851.22;5032228;27;96952;-68
2022/09/10 10:26:24;;;;;;;2.17;0.60;;;;;;;26.35;37.99;100851.97;5031767;27;98856;-67
2022/09/10 10:28:53;;;;;;;2.88;0.52;;;;;;;26.69;37.90;100844.88;5031762;28;98852;-68
2022/09/10 10:31:20;;;;;;;1.63;0.50;;;;;;;26.80;37.60;100843.78;5027100;27;96771;-68
2022/09/10 10:33:55;;;;;;;1.65;0.57;;;;;;;26.07;38.99;100854.69;5032700;28;96688;-68
2022/09/10 10:36:31;;;;;;;3.45;0.63;;;;;;;25.52;39.58;100858.34;5031763;28;99530;-68
2022/09/10 10:39:09;;;;;;;3.78;0.60;;;;;;;25.56;40.57;100849.78;5029728;28;100783;-68
2022/09/10 10:41:50;;;;;;;1.40;0.60;;;;;;;25.61;40.00;100849.34;5032005;27;96815;-68
2022/09/10 10:44:39;;;;;;;3.47;1.42;;;;;;;25.88;39.67;100846.66;5029634;28;96831;-68
2022/09/10 10:47:20;;;;;;;2.22;0.85;;;;;;;26.05;39.00;100835.06;5031404;27;100001;-68
2022/09/10 10:49:56;;;;;;;2.65;0.55;;;;;;;26.23;38.90;100834.22;5024363;28;99003;-69
2022/09/10 10:52:30;;;;;;;1.60;0.70;;;;;;;26.14;38.09;100838.69;5027824;28;97483;-70
2022/09/10 10:55:15;;;;;;;4.25;0.65;;;;;;;25.94;38.20;100847.91;5032022;28;96915;-69
2022/09/10 10:58:11;;;;;;;2.83;1.25;;;;;;;26.45;37.90;100842.75;5031545;28;99611;-69
2022/09/10 11:00:42;;;;;;;2.85;0.88;;;;;;;27.01;36.95;100838.91;5027519;28;98912;-70
2022/09/10 11:03:20;;;;;;;5.38;0.65;;;;;;;26.94;37.05;100841.38;5032299;27;97117;-70
2022/09/10 11:05:50;;;;;;;5.50;0.80;;;;;;;27.07;36.68;100840.97;5031923;27;97315;-70
2022/09/10 11:08:22;;;;;;;3.63;0.70;;;;;;;27.09;36.52;100847.09;5029016;28;99114;-70
2022/09/10 11:10:53;;;;;;;1.58;0.40;;;;;;;26.62;36.34;100838.38;5031297;28;99425;-69
2022/09/10 11:13:27;;;;;;;2.40;0.50;;;;;;;26.62;36.99;100840.22;5030038;28;97316;-70
2022/09/10 11:16:00;;;;;;;4.05;0.90;;;;;;;26.36;38.18;100837.44;5030155;28;96882;-70
2022/09/10 11:18:32;;;;;;;1.27;0.70;;;;;;;26.42;38.43;100845.81;5031735;28;101591;-70
2022/09/10 11:21:05;;;;;;;1.83;0.80;;;;;;;26.77;37.69;100836.81;5030093;28;98916;-71
2022/09/10 11:23:39;;;;;;;3.22;0.75;;;;;;;26.55;38.13;100837.28;5025664;28;96730;-70
2022/09/10 11:26:11;;;;;;;1.90;0.60;;;;;;;26.63;38.13;100833.81;5026521;28;96945;-70
2022/09/10 11:28:44;;;;;;;3.78;0.50;;;;;;;26.32;38.22;100841.47;5032592;27;99231;-69
2022/09/10 11:31:22;;;;;;;3.13;0.75;;;;;;;26.17;38.50;100844.66;5032516;27;99859;-69
2022/09/10 11:33:59;;;;;;;6.78;0.60;;;;;;;26.11;38.29;100833.59;5035513;27;96994;-70
2022/09/10 11:36:33;;;;;;;1.48;0.50;;;;;;;26.41;37.63;100841.38;5036087;28;97198;-70
2022/09/10 11:39:10;;;;;;;3.47;0.80;;;;;;;27.10;36.38;100837.09;5032886;28;98874;-70